createdAt,value
2019-06-01T00:00:27.332Z,20.62
2019-06-01T00:02:58.506Z,20.59
2019-06-01T00:05:29.395Z,20.53
2019-06-01T00:08:01.155Z,20.46
2019-06-01T00:10:32.115Z,20.54
2019-06-01T00:13:03.908Z,20.54
2019-06-01T00:15:34.340Z,20.54
2019-06-01T00:18:04.769Z,20.48
2019-06-01T00:20:35.396Z,20.39
2019-06-01T00:23:06.064Z,20.32
2019-06-01T00:25:36.623Z,20.30
2019-06-01T00:28:10.394Z,20.25
2019-06-01T00:30:41.616Z,20.18
2019-06-01T00:33:12.287Z,20.10
2019-06-01T00:35:43.516Z,20.08
2019-06-01T00:38:14.326Z,20.05
2019-06-01T00:40:45.772Z,20.09
2019-06-01T00:43:16.441Z,20.11
2019-06-01T00:45:46.946Z,20.09
2019-06-01T00:48:20.858Z,20.08
2019-06-01T00:50:53.101Z,20.02
2019-06-01T00:53:23.994Z,19.96
2019-06-01T00:55:54.628Z,19.91
2019-06-01T00:58:25.006Z,19.89
2019-06-01T01:00:55.719Z,19.85
2019-06-01T01:03:30.881Z,19.78
2019-06-01T01:06:01.466Z,19.73
2019-06-01T01:08:32.356Z,19.72
2019-06-01T01:11:03.118Z,19.64
2019-06-01T01:13:33.871Z,19.63
2019-06-01T01:16:04.567Z,19.63
2019-06-01T01:18:34.921Z,19.63
2019-06-01T01:21:05.253Z,19.64
2019-06-01T01:23:39.823Z,19.62
2019-06-01T01:26:12.147Z,19.57
2019-06-01T01:28:42.654Z,19.54
2019-06-01T01:31:14.431Z,19.47
2019-06-01T01:33:45.664Z,19.43
2019-06-01T01:36:16.066Z,19.39
2019-06-01T01:38:48.146Z,19.34
2019-06-01T01:41:18.797Z,19.32
2019-06-01T01:43:50.312Z,19.31
2019-06-01T01:46:22.649Z,19.24
2019-06-01T01:48:54.187Z,19.24
2019-06-01T01:51:24.843Z,19.29
2019-06-01T01:53:55.245Z,19.31
2019-06-01T01:56:25.700Z,19.32
2019-06-01T01:58:56.510Z,19.35
2019-06-01T02:01:27.259Z,19.33
2019-06-01T02:04:00.324Z,19.32
2019-06-01T02:06:32.516Z,19.33
2019-06-01T02:09:03.153Z,19.33
2019-06-01T02:11:33.474Z,19.35
2019-06-01T02:14:04.084Z,19.46
2019-06-01T02:16:35.077Z,19.49
2019-06-01T02:19:05.533Z,19.54
2019-06-01T02:21:35.911Z,19.53
2019-06-01T02:24:06.418Z,19.52
2019-06-01T02:26:37.037Z,19.45
2019-06-01T02:29:07.485Z,19.37
2019-06-01T02:31:42.248Z,19.36
2019-06-01T02:34:10.108Z,19.36
2019-06-01T02:36:40.364Z,19.38
2019-06-01T02:39:12.534Z,19.40
2019-06-01T02:41:43.064Z,19.35
2019-06-01T02:44:13.469Z,19.25
2019-06-01T02:46:43.879Z,19.19
2019-06-01T02:49:14.175Z,19.21
2019-06-01T02:51:44.683Z,19.25
2019-06-01T02:54:15.256Z,19.31
2019-06-01T02:56:45.185Z,19.27
2019-06-01T02:59:15.666Z,19.23
2019-06-01T03:01:56.695Z,19.18
2019-06-01T03:04:20.338Z,19.15
2019-06-01T03:06:54.552Z,19.15
2019-06-01T03:09:27.951Z,19.13
2019-06-01T03:12:02.084Z,19.10
2019-06-01T03:14:35.463Z,19.05
2019-06-01T03:17:07.809Z,19.06
2019-06-01T03:19:43.056Z,19.03
2019-06-01T03:22:16.230Z,19.03
2019-06-01T03:24:50.845Z,19.01
2019-06-01T03:27:30.793Z,19.03
2019-06-01T03:30:05.864Z,19.03
2019-06-01T03:32:37.425Z,18.99
2019-06-01T03:35:12.993Z,18.97
2019-06-01T03:37:44.104Z,18.96
2019-06-01T03:40:23.455Z,18.97
2019-06-01T03:42:51.125Z,18.97
2019-06-01T03:45:21.303Z,18.96
2019-06-01T03:50:53.505Z,19.02
2019-06-01T03:53:23.825Z,19.03
2019-06-01T03:55:54.287Z,19.03
2019-06-01T03:58:49.937Z,19.02
2019-06-01T04:01:21.369Z,19.02
2019-06-01T04:03:58.633Z,19.02
2019-06-01T04:06:28.968Z,19.09
2019-06-01T04:08:58.828Z,19.22
2019-06-01T04:11:34.105Z,19.28
2019-06-01T04:14:06.142Z,19.32
2019-06-01T04:16:36.934Z,19.39
2019-06-01T04:19:25.151Z,19.46
2019-06-01T04:21:55.478Z,19.54
2019-06-01T04:24:29.888Z,19.63
2019-06-01T04:26:59.815Z,19.72
2019-06-01T04:29:30.281Z,19.81
2019-06-01T04:32:00.430Z,19.87
2019-06-01T04:34:35.742Z,19.90
2019-06-01T04:37:05.085Z,19.98
2019-06-01T04:39:35.728Z,20.08
2019-06-01T04:42:07.619Z,20.13
2019-06-01T04:44:38.372Z,20.21
2019-06-01T04:47:13.015Z,20.29
2019-06-01T04:49:44.015Z,20.35
2019-06-01T04:52:16.893Z,20.42
2019-06-01T04:54:46.734Z,20.49
2019-06-01T04:57:19.083Z,20.57
2019-06-01T04:59:49.718Z,20.62
2019-06-01T05:02:19.868Z,20.64
2019-06-01T05:04:50.683Z,20.69
2019-06-01T05:07:24.234Z,20.79
2019-06-01T05:09:54.678Z,20.87
2019-06-01T05:12:25.326Z,20.97
2019-06-01T05:14:55.882Z,21.05
2019-06-01T05:17:26.260Z,21.17
2019-06-01T05:19:56.768Z,21.25
2019-06-01T05:22:29.366Z,21.38
2019-06-01T05:25:00.218Z,21.46
2019-06-01T05:27:40.440Z,21.57
2019-06-01T05:30:11.676Z,21.73
2019-06-01T05:32:43.823Z,21.87
2019-06-01T05:35:15.897Z,21.95
2019-06-01T05:37:46.589Z,22.10
2019-06-01T05:40:19.636Z,22.28
2019-06-01T05:42:49.469Z,22.45
2019-06-01T05:45:22.657Z,22.60
2019-06-01T05:47:53.031Z,22.70
2019-06-01T05:50:23.702Z,22.81
2019-06-01T05:52:54.283Z,22.98
2019-06-01T05:55:26.556Z,23.10
2019-06-01T05:57:58.908Z,23.19
2019-06-01T06:00:45.376Z,23.30
2019-06-01T06:03:21.762Z,23.47
2019-06-01T06:05:48.591Z,23.58
2019-06-01T06:08:20.143Z,23.70
2019-06-01T06:10:50.780Z,23.84
2019-06-01T06:13:21.679Z,23.99
2019-06-01T06:15:52.270Z,24.03
2019-06-01T06:18:24.503Z,24.21
2019-06-01T06:20:56.801Z,24.36
2019-06-01T06:23:27.357Z,24.50
2019-06-01T06:26:02.462Z,24.69
2019-06-01T06:28:37.038Z,24.91
2019-06-01T06:31:07.553Z,25.21
2019-06-01T06:33:55.627Z,25.20
2019-06-01T06:36:17.847Z,25.15
2019-06-01T06:38:48.511Z,25.22
2019-06-01T06:41:20.262Z,25.46
2019-06-01T06:43:50.887Z,25.76
2019-06-01T06:46:26.209Z,26.24
2019-06-01T06:48:56.654Z,26.60
2019-06-01T06:51:28.747Z,27.04
2019-06-01T06:53:59.535Z,27.51
2019-06-01T06:56:31.705Z,27.91
2019-06-01T06:59:02.151Z,28.13
2019-06-01T07:01:32.569Z,28.30
2019-06-01T07:04:12.584Z,28.37
2019-06-01T07:06:38.930Z,28.84
2019-06-01T07:09:11.283Z,29.26
2019-06-01T07:11:42.377Z,29.35
2019-06-01T07:14:12.726Z,29.39
2019-06-01T07:16:46.280Z,29.44
2019-06-01T07:19:17.378Z,29.45
2019-06-01T07:21:47.869Z,29.67
2019-06-01T07:24:18.199Z,29.83
2019-06-01T07:26:48.569Z,30.02
2019-06-01T07:29:19.952Z,30.22
2019-06-01T07:31:50.467Z,30.20
2019-06-01T07:34:37.229Z,30.01
2019-06-01T07:36:52.925Z,30.09
2019-06-01T07:39:24.754Z,30.10
2019-06-01T07:41:55.622Z,30.25
2019-06-01T07:44:26.930Z,30.55
2019-06-01T07:47:02.569Z,31.08
2019-06-01T07:49:32.542Z,31.35
2019-06-01T07:52:12.689Z,31.24
2019-06-01T07:54:34.988Z,31.23
2019-06-01T07:57:05.344Z,31.73
2019-06-01T07:59:42.120Z,32.17
2019-06-01T08:02:12.968Z,32.31
2019-06-01T08:04:53.242Z,32.22
2019-06-01T08:07:31.292Z,32.46
2019-06-01T08:09:55.642Z,32.79
2019-06-01T08:12:32.183Z,32.86
2019-06-01T08:15:06.796Z,33.31
2019-06-01T08:17:37.065Z,33.45
2019-06-01T08:20:07.893Z,33.62
2019-06-01T08:22:38.197Z,33.86
2019-06-01T08:25:08.537Z,34.13
2019-06-01T08:27:38.854Z,34.51
2019-06-01T08:30:10.935Z,34.82
2019-06-01T08:32:41.266Z,35.34
2019-06-01T08:35:12.650Z,35.75
2019-06-01T08:37:42.994Z,36.05
2019-06-01T08:40:14.542Z,36.17
2019-06-01T08:42:44.845Z,36.87
2019-06-01T08:45:15.329Z,37.05
2019-06-01T08:47:45.697Z,36.85
2019-06-01T08:50:16.391Z,37.15
2019-06-01T08:52:46.692Z,37.74
2019-06-01T08:55:17.109Z,38.03
2019-06-01T08:57:47.387Z,38.48
2019-06-01T09:00:18.172Z,38.68
2019-06-01T09:02:48.434Z,39.02
2019-06-01T09:05:24.972Z,39.92
2019-06-01T09:07:55.216Z,40.96
2019-06-01T09:10:25.474Z,41.54
2019-06-01T09:12:55.766Z,41.18
2019-06-01T09:15:27.450Z,41.40
2019-06-01T09:17:57.889Z,41.78
2019-06-01T09:20:30.204Z,42.17
2019-06-01T09:23:00.184Z,42.08
2019-06-01T09:25:31.697Z,40.20
2019-06-01T09:28:02.099Z,39.63
2019-06-01T09:30:32.485Z,40.25
2019-06-01T09:33:02.750Z,39.87
2019-06-01T09:35:47.746Z,39.86
2019-06-01T09:38:05.244Z,41.12
2019-06-01T09:40:37.323Z,42.29
2019-06-01T09:43:07.794Z,42.56
2019-06-01T09:45:38.393Z,43.53
2019-06-01T09:48:08.733Z,43.81
2019-06-01T09:50:39.038Z,43.32
2019-06-01T09:53:09.363Z,42.89
2019-06-01T09:55:39.640Z,42.92
2019-06-01T09:58:09.919Z,43.09
2019-06-01T10:00:43.638Z,41.34
2019-06-01T10:03:12.448Z,38.98
2019-06-01T10:05:43.059Z,39.20
2019-06-01T10:08:13.431Z,40.63
2019-06-01T10:10:43.757Z,41.41
2019-06-01T10:13:14.036Z,41.79
2019-06-01T10:15:44.338Z,42.58
2019-06-01T10:18:14.648Z,43.54
2019-06-01T10:20:44.886Z,44.98
2019-06-01T10:23:15.175Z,45.88
2019-06-01T10:25:45.450Z,46.66
2019-06-01T10:28:17.673Z,47.36
2019-06-01T10:30:47.923Z,47.34
2019-06-01T10:33:18.216Z,47.67
2019-06-01T10:35:48.596Z,47.17
2019-06-01T10:38:18.972Z,48.08
2019-06-01T10:40:49.671Z,48.10
2019-06-01T10:43:19.670Z,48.07
2019-06-01T10:45:50.524Z,47.65
2019-06-01T10:48:20.911Z,45.09
2019-06-01T10:50:51.174Z,45.34
2019-06-01T10:53:21.144Z,47.61
2019-06-01T10:55:51.412Z,46.96
2019-06-01T10:58:21.707Z,44.09
2019-06-01T11:00:52.164Z,45.41
2019-06-01T11:03:22.471Z,45.42
2019-06-01T11:05:52.747Z,42.47
2019-06-01T11:08:23.013Z,41.07
2019-06-01T11:10:53.448Z,44.13
2019-06-01T11:13:23.843Z,45.55
2019-06-01T11:15:54.127Z,46.51
2019-06-01T11:18:24.100Z,48.58
2019-06-01T11:20:54.072Z,50.65
2019-06-01T11:23:24.056Z,52.24
2019-06-01T11:25:54.033Z,53.45
2019-06-01T11:28:24.019Z,54.30
2019-06-01T11:30:54.015Z,54.09
2019-06-01T11:33:23.988Z,53.42
2019-06-01T11:35:53.970Z,54.80
2019-06-01T11:38:23.955Z,55.24
2019-06-01T11:40:57.460Z,55.01
2019-06-01T11:43:27.386Z,54.51
2019-06-01T11:45:57.356Z,54.78
2019-06-01T11:48:27.319Z,54.89
2019-06-01T11:50:57.304Z,54.65
2019-06-01T11:53:27.242Z,54.24
2019-06-01T11:55:58.269Z,53.72
2019-06-01T11:58:28.184Z,53.71
2019-06-01T12:00:58.259Z,55.15
2019-06-01T12:03:29.811Z,55.21
2019-06-01T12:05:59.773Z,55.72
2019-06-01T12:08:33.868Z,56.15
2019-06-01T12:11:01.459Z,56.32
2019-06-01T12:13:31.455Z,56.36
2019-06-01T12:16:01.471Z,55.82
2019-06-01T12:18:31.424Z,54.40
2019-06-01T12:21:01.399Z,54.48
2019-06-01T12:23:31.356Z,54.81
2019-06-01T12:26:01.359Z,55.32
2019-06-01T12:28:31.511Z,56.71
2019-06-01T12:31:01.499Z,57.80
2019-06-01T12:33:31.480Z,58.39
2019-06-01T12:36:01.428Z,58.52
2019-06-01T12:38:33.049Z,57.57
2019-06-01T12:41:03.025Z,56.17
2019-06-01T12:43:33.034Z,56.35
2019-06-01T12:46:07.641Z,57.45
2019-06-01T12:48:34.688Z,58.02
2019-06-01T12:51:04.674Z,57.86
2019-06-01T12:53:34.644Z,57.27
2019-06-01T12:56:04.710Z,57.45
2019-06-01T12:58:34.678Z,58.09
2019-06-01T13:01:04.685Z,57.88
2019-06-01T13:03:36.123Z,57.39
2019-06-01T13:06:06.114Z,57.05
2019-06-01T13:08:36.241Z,56.98
2019-06-01T13:11:06.221Z,57.15
2019-06-01T13:13:36.247Z,57.68
2019-06-01T13:16:06.296Z,58.11
2019-06-01T13:18:36.291Z,59.12
2019-06-01T13:21:06.278Z,58.65
2019-06-01T13:23:36.241Z,57.27
2019-06-01T13:26:06.248Z,57.59
2019-06-01T13:28:38.352Z,58.80
2019-06-01T13:31:07.971Z,58.50
2019-06-01T13:33:38.004Z,55.68
2019-06-01T13:36:08.075Z,51.90
2019-06-01T13:38:38.021Z,50.80
2019-06-01T13:41:08.132Z,52.61
2019-06-01T13:43:38.077Z,54.44
2019-06-01T13:46:08.109Z,55.64
2019-06-01T13:48:38.123Z,56.12
2019-06-01T13:51:08.202Z,56.07
2019-06-01T13:53:41.289Z,55.89
2019-06-01T13:56:11.264Z,55.78
2019-06-01T13:58:44.299Z,56.20
2019-06-01T14:01:14.489Z,56.45
2019-06-01T14:03:44.993Z,57.26
2019-06-01T14:06:15.120Z,57.01
2019-06-01T14:08:45.163Z,56.29
2019-06-01T14:11:15.160Z,56.04
2019-06-01T14:13:45.363Z,55.16
2019-06-01T14:16:15.756Z,54.79
2019-06-01T14:18:45.729Z,52.01
2019-06-01T14:21:15.695Z,49.81
2019-06-01T14:23:45.832Z,51.10
2019-06-01T14:26:15.904Z,52.72
2019-06-01T14:28:46.377Z,53.51
2019-06-01T14:31:16.385Z,53.26
2019-06-01T14:33:46.540Z,53.10
2019-06-01T14:36:16.593Z,53.31
2019-06-01T14:38:48.975Z,53.18
2019-06-01T14:41:18.325Z,52.50
2019-06-01T14:43:49.075Z,51.96
2019-06-01T14:46:19.187Z,52.43
2019-06-01T14:48:49.406Z,52.71
2019-06-01T14:51:19.446Z,52.40
2019-06-01T14:53:49.554Z,51.85
2019-06-01T14:56:19.702Z,51.60
2019-06-01T14:58:49.945Z,49.49
2019-06-01T15:01:31.773Z,50.06
2019-06-01T15:03:52.277Z,50.37
2019-06-01T15:06:22.255Z,50.88
2019-06-01T15:09:10.566Z,50.91
2019-06-01T15:11:23.926Z,50.25
2019-06-01T15:13:54.449Z,49.69
2019-06-01T15:16:24.576Z,48.72
2019-06-01T15:18:55.934Z,48.25
2019-06-01T15:21:26.144Z,48.46
2019-06-01T15:23:56.720Z,48.63
2019-06-01T15:26:26.770Z,48.57
2019-06-01T15:28:57.133Z,48.99
2019-06-01T15:31:27.187Z,49.17
2019-06-01T15:33:57.457Z,49.20
2019-06-01T15:36:27.405Z,48.81
2019-06-01T15:38:57.924Z,48.32
2019-06-01T15:41:28.166Z,47.93
2019-06-01T15:43:59.150Z,47.68
2019-06-01T15:46:29.585Z,47.62
2019-06-01T15:49:00.201Z,46.66
2019-06-01T15:51:30.635Z,46.61
2019-06-01T15:54:01.151Z,46.72
2019-06-01T15:56:31.270Z,46.85
2019-06-01T15:59:02.759Z,46.37
2019-06-01T16:01:33.200Z,45.07
2019-06-01T16:04:03.537Z,43.56
2019-06-01T16:06:33.828Z,41.72
2019-06-01T16:09:05.173Z,39.78
2019-06-01T16:11:35.497Z,38.17
2019-06-01T16:14:06.319Z,36.94
2019-06-01T16:16:36.588Z,36.23
2019-06-01T16:19:08.068Z,35.44
2019-06-01T16:21:38.541Z,34.96
2019-06-01T16:24:08.820Z,34.59
2019-06-01T16:26:39.085Z,34.27
2019-06-01T16:29:09.356Z,33.92
2019-06-01T16:31:39.652Z,33.74
2019-06-01T16:34:09.942Z,33.54
2019-06-01T16:36:40.210Z,33.24
2019-06-01T16:39:10.862Z,33.04
2019-06-01T16:41:41.108Z,32.93
2019-06-01T16:44:11.384Z,32.84
2019-06-01T16:46:41.730Z,32.78
2019-06-01T16:49:12.020Z,32.67
2019-06-01T16:51:59.112Z,32.58
2019-06-01T16:54:29.616Z,32.40
2019-06-01T16:56:59.890Z,32.26
2019-06-01T16:59:30.166Z,32.04
2019-06-01T17:02:00.975Z,31.91
2019-06-01T17:04:31.411Z,31.79
2019-06-01T17:07:05.007Z,31.66
2019-06-01T17:09:33.731Z,31.60
2019-06-01T17:12:05.239Z,31.52
2019-06-01T17:14:35.745Z,31.44
2019-06-01T17:17:07.468Z,31.32
2019-06-01T17:19:37.938Z,31.30
2019-06-01T17:22:08.277Z,31.19
2019-06-01T17:24:38.550Z,31.09
2019-06-01T17:27:08.833Z,31.00
2019-06-01T17:29:39.090Z,30.95
2019-06-01T17:32:23.575Z,30.93
2019-06-01T17:34:41.542Z,30.84
2019-06-01T17:37:11.829Z,30.79
2019-06-01T17:39:42.153Z,30.73
2019-06-01T17:42:12.703Z,30.69
2019-06-01T17:44:43.355Z,30.60
2019-06-01T17:47:13.621Z,30.48
2019-06-01T17:49:43.895Z,30.40
2019-06-01T17:52:14.167Z,30.30
2019-06-01T17:54:44.420Z,30.21
2019-06-01T17:57:14.687Z,30.16
2019-06-01T17:59:44.975Z,30.14
2019-06-01T18:02:15.395Z,30.08
2019-06-01T18:04:46.764Z,30.00
2019-06-01T18:07:17.041Z,29.83
2019-06-01T18:09:47.366Z,29.70
2019-06-01T18:12:17.954Z,29.60
2019-06-01T18:14:48.255Z,29.49
2019-06-01T18:17:18.555Z,29.36
2019-06-01T18:19:48.797Z,29.30
2019-06-01T18:22:19.090Z,29.22
2019-06-01T18:24:49.418Z,29.11
2019-06-01T18:27:19.699Z,29.06
2019-06-01T18:29:49.981Z,29.01
2019-06-01T18:32:21.969Z,28.92
2019-06-01T18:34:58.023Z,28.76
2019-06-01T18:37:28.223Z,28.66
2019-06-01T18:39:58.514Z,28.53
2019-06-01T18:42:31.217Z,28.44
2019-06-01T18:45:01.845Z,28.39
2019-06-01T18:47:33.589Z,28.29
2019-06-01T18:50:05.805Z,28.20
2019-06-01T18:52:36.567Z,28.12
2019-06-01T18:55:08.499Z,28.08
2019-06-01T18:57:43.939Z,27.98
2019-06-01T19:00:16.710Z,27.83
2019-06-01T19:02:47.053Z,27.68
2019-06-01T19:05:17.391Z,27.53
2019-06-01T19:07:47.678Z,27.40
2019-06-01T19:10:18.469Z,27.30
2019-06-01T19:12:48.874Z,27.22
2019-06-01T19:15:28.360Z,27.12
2019-06-01T19:17:52.020Z,27.08
2019-06-01T19:20:22.287Z,27.02
2019-06-01T19:22:53.107Z,26.95
2019-06-01T19:25:26.068Z,26.93
2019-06-01T19:27:56.560Z,26.83
2019-06-01T19:30:43.877Z,26.78
2019-06-01T19:33:17.428Z,26.66
2019-06-01T19:35:46.361Z,26.52
2019-06-01T19:38:18.204Z,26.43
2019-06-01T19:40:48.609Z,26.34
2019-06-01T19:43:18.885Z,26.27
2019-06-01T19:45:49.148Z,26.21
2019-06-01T19:48:19.571Z,26.08
2019-06-01T19:50:49.986Z,25.98
2019-06-01T19:53:20.307Z,25.89
2019-06-01T19:55:50.589Z,25.80
2019-06-01T19:58:22.252Z,25.72
2019-06-01T20:00:52.712Z,25.63
2019-06-01T20:03:24.162Z,25.57
2019-06-01T20:05:54.451Z,25.55
2019-06-01T20:08:24.827Z,25.47
2019-06-01T20:10:56.652Z,25.40
2019-06-01T20:13:26.963Z,25.32
2019-06-01T20:15:57.207Z,25.25
2019-06-01T20:18:28.888Z,25.18
2019-06-01T20:21:01.723Z,25.15
2019-06-01T20:23:33.851Z,25.08
2019-06-01T20:26:04.948Z,25.05
2019-06-01T20:28:36.098Z,25.02
2019-06-01T20:31:06.349Z,24.98
2019-06-01T20:33:39.691Z,24.93
2019-06-01T20:36:10.386Z,24.87
2019-06-01T20:38:40.651Z,24.83
2019-06-01T20:41:12.533Z,24.80
2019-06-01T20:43:42.934Z,24.78
2019-06-01T20:46:14.478Z,24.72
2019-06-01T20:48:45.149Z,24.69
2019-06-01T20:51:16.699Z,24.67
2019-06-01T20:53:47.106Z,24.67
2019-06-01T20:56:17.453Z,24.59
2019-06-01T20:58:47.971Z,24.56
2019-06-01T21:01:18.248Z,24.49
2019-06-01T21:03:48.522Z,24.44
2019-06-01T21:06:20.693Z,24.42
2019-06-01T21:08:50.816Z,24.38
2019-06-01T21:11:22.250Z,24.30
2019-06-01T21:13:55.553Z,24.27
2019-06-01T21:16:25.836Z,24.23
2019-06-01T21:18:56.186Z,24.19
2019-06-01T21:21:26.446Z,24.17
2019-06-01T21:23:56.763Z,24.15
2019-06-01T21:26:28.281Z,24.07
2019-06-01T21:28:58.537Z,24.00
2019-06-01T21:31:28.811Z,23.98
2019-06-01T21:33:59.218Z,23.97
2019-06-01T21:36:29.541Z,23.94
2019-06-01T21:38:59.818Z,23.87
2019-06-01T21:41:30.514Z,23.81
2019-06-01T21:44:00.719Z,23.75
2019-06-01T21:46:31.062Z,23.68
2019-06-01T21:49:04.895Z,23.63
2019-06-01T21:51:35.151Z,23.57
2019-06-01T21:54:05.917Z,23.51
2019-06-01T21:56:36.176Z,23.48
2019-06-01T21:59:06.526Z,23.39
2019-06-01T22:01:36.971Z,23.33
2019-06-01T22:04:10.370Z,23.32
2019-06-01T22:06:40.654Z,23.26
2019-06-01T22:09:10.986Z,23.23
2019-06-01T22:11:41.253Z,23.22
2019-06-01T22:14:11.544Z,23.20
2019-06-01T22:16:42.984Z,23.17
2019-06-01T22:19:13.251Z,23.10
2019-06-01T22:21:43.562Z,23.04
2019-06-01T22:24:13.852Z,23.07
2019-06-01T22:26:44.138Z,23.15
2019-06-01T22:29:14.426Z,23.19
2019-06-01T22:31:44.674Z,23.19
2019-06-01T22:34:14.971Z,23.21
2019-06-01T22:36:45.329Z,23.17
2019-06-01T22:39:15.595Z,23.07
2019-06-01T22:41:45.961Z,23.04
2019-06-01T22:44:17.192Z,22.95
2019-06-01T22:46:48.206Z,22.88
2019-06-01T22:49:18.445Z,22.80
2019-06-01T22:51:48.754Z,22.70
2019-06-01T22:54:19.085Z,22.66
2019-06-01T22:56:49.791Z,22.60
2019-06-01T22:59:20.542Z,22.54
2019-06-01T23:01:50.935Z,22.51
2019-06-01T23:04:21.216Z,22.47
2019-06-01T23:06:51.551Z,22.42
2019-06-01T23:09:22.964Z,22.39
2019-06-01T23:11:53.419Z,22.35
2019-06-01T23:14:23.698Z,22.30
2019-06-01T23:16:54.003Z,22.24
2019-06-01T23:19:25.683Z,22.19
2019-06-01T23:21:56.166Z,22.15
2019-06-01T23:24:26.429Z,22.07
2019-06-01T23:26:57.185Z,22.00
2019-06-01T23:29:28.072Z,21.96
2019-06-01T23:31:58.479Z,21.89
2019-06-01T23:34:28.849Z,21.86
2019-06-01T23:36:59.178Z,21.81
2019-06-01T23:39:30.731Z,21.78
2019-06-01T23:42:01.244Z,21.77
2019-06-01T23:44:33.529Z,21.74
2019-06-01T23:47:03.601Z,21.69
2019-06-01T23:49:34.122Z,21.65
2019-06-01T23:52:04.576Z,21.62
2019-06-01T23:54:35.614Z,21.57
2019-06-01T23:57:06.337Z,21.54
2019-06-01T23:59:36.886Z,21.48
